Time;durP1;ratioP1;P1;durP2;ratioP2;P2;SDS_P1;SDS_P2;PMS_P1;PMS_P2;Temp;Humidity;BMP_temperature;BMP_pressure;BME280_temperature;BME280_humidity;BME280_pressure;Samples;Min_cycle;Max_cycle;Signal;HPM_P1;HPM_P2
2022/03/25 00:01:22;;;;;;;128.88;75.40;;;;;;;;;;6234459;23;20016;-85
2022/03/25 00:03:49;;;;;;;130.60;75.13;;;;;;;;;;6234674;23;20078;-86
2022/03/25 00:06:16;;;;;;;126.05;73.18;;;;;;;;;;6234679;23;20016;-86
2022/03/25 00:08:43;;;;;;;133.88;74.55;;;;;;;;;;6236524;23;20012;-85
2022/03/25 00:11:09;;;;;;;134.38;75.00;;;;;;;;;;6236313;23;20020;-83
2022/03/25 00:13:35;;;;;;;135.80;75.68;;;;;;;;;;6261604;22;20020;-84
2022/03/25 00:16:01;;;;;;;138.40;77.18;;;;;;;;;;6235076;23;20103;-86
2022/03/25 00:18:27;;;;;;;128.82;74.53;;;;;;;;;;6235146;23;20020;-86
2022/03/25 00:20:53;;;;;;;140.30;76.50;;;;;;;;;;6259975;22;20020;-84
2022/03/25 00:23:19;;;;;;;134.20;77.50;;;;;;;;;;6260246;22;20456;-86
2022/03/25 00:25:45;;;;;;;142.10;75.63;;;;;;;;;;6236072;23;20452;-86
2022/03/25 00:28:11;;;;;;;138.25;74.72;;;;;;;;;;6235550;23;20024;-86
2022/03/25 00:30:37;;;;;;;131.55;75.63;;;;;;;;;;6235045;23;20715;-85
2022/03/25 00:33:04;;;;;;;136.23;76.28;;;;;;;;;;6259513;22;20020;-86
2022/03/25 00:35:31;;;;;;;131.63;72.90;;;;;;;;;;6234789;23;20022;-86
2022/03/25 00:37:58;;;;;;;125.43;73.82;;;;;;;;;;6259757;22;20023;-85
2022/03/25 00:40:24;;;;;;;127.13;71.40;;;;;;;;;;6234784;23;20024;-84
2022/03/25 00:42:51;;;;;;;138.40;77.00;;;;;;;;;;6237525;23;20023;-84
2022/03/25 00:45:17;;;;;;;133.65;75.22;;;;;;;;;;6238668;23;20344;-85
2022/03/25 00:47:43;;;;;;;131.27;73.28;;;;;;;;;;6238301;23;20020;-84
2022/03/25 00:50:11;;;;;;;121.47;69.40;;;;;;;;;;6270985;22;20016;-82
2022/03/25 00:52:37;;;;;;;118.40;68.45;;;;;;;;;;6262518;23;20027;-80
2022/03/25 00:55:05;;;;;;;113.45;65.80;;;;;;;;;;6228827;23;20051;-82
2022/03/25 00:57:31;;;;;;;130.02;70.60;;;;;;;;;;6262387;23;20023;-82
2022/03/25 00:59:58;;;;;;;121.88;69.70;;;;;;;;;;6239394;23;20020;-87
2022/03/25 01:02:24;;;;;;;125.90;73.35;;;;;;;;;;6238471;23;20024;-85
2022/03/25 01:04:50;;;;;;;136.73;73.65;;;;;;;;;;6238925;23;20436;-85
2022/03/25 01:07:17;;;;;;;136.40;72.10;;;;;;;;;;6261931;22;20020;-85
2022/03/25 01:09:44;;;;;;;130.60;71.38;;;;;;;;;;6239161;23;20020;-86
2022/03/25 01:12:11;;;;;;;125.70;70.20;;;;;;;;;;6262254;22;20054;-85
2022/03/25 01:14:37;;;;;;;119.03;66.20;;;;;;;;;;6239496;22;20012;-86
2022/03/25 01:17:03;;;;;;;130.70;69.88;;;;;;;;;;6237653;23;20024;-86
2022/03/25 01:19:30;;;;;;;125.63;68.15;;;;;;;;;;6237876;23;20016;-83
2022/03/25 01:21:56;;;;;;;109.18;63.88;;;;;;;;;;6237582;23;20016;-80
2022/03/25 01:24:23;;;;;;;123.97;67.13;;;;;;;;;;6238414;23;20023;-85
2022/03/25 01:26:49;;;;;;;116.82;67.45;;;;;;;;;;6262244;22;20104;-84
2022/03/25 01:29:15;;;;;;;128.35;69.75;;;;;;;;;;6238608;23;20108;-84
2022/03/25 01:31:41;;;;;;;122.97;70.30;;;;;;;;;;6261552;22;20055;-84
2022/03/25 01:34:07;;;;;;;126.47;69.25;;;;;;;;;;6261775;22;20067;-85
2022/03/25 01:36:34;;;;;;;126.13;70.80;;;;;;;;;;6238505;23;20020;-86
2022/03/25 01:39:01;;;;;;;126.32;67.72;;;;;;;;;;6211560;23;20483;-85
2022/03/25 01:41:27;;;;;;;122.15;67.28;;;;;;;;;;6236440;23;20020;-86
2022/03/25 01:44:00;;;;;;;121.95;67.90;;;;;;;;;;6238039;23;20016;-84
2022/03/25 01:46:29;;;;;;;126.40;67.00;;;;;;;;;;6260522;22;20023;-83
2022/03/25 01:48:56;;;;;;;125.25;67.35;;;;;;;;;;6262143;22;20020;-85
2022/03/25 01:51:25;;;;;;;116.35;66.80;;;;;;;;;;6236906;23;20023;-84
2022/03/25 01:53:51;;;;;;;115.93;65.45;;;;;;;;;;6236560;23;20016;-86
2022/03/25 01:56:22;;;;;;;127.40;69.95;;;;;;;;;;6236813;23;20357;-83
2022/03/25 01:58:49;;;;;;;118.57;65.57;;;;;;;;;;6262155;22;20520;-86
2022/03/25 02:01:16;;;;;;;106.88;61.25;;;;;;;;;;6261689;22;20487;-86
2022/03/25 02:03:44;;;;;;;115.60;63.38;;;;;;;;;;6236749;23;20022;-86
2022/03/25 02:06:10;;;;;;;108.43;62.95;;;;;;;;;;6236523;23;20031;-85
2022/03/25 02:08:36;;;;;;;114.13;62.90;;;;;;;;;;6234732;23;20024;-84
2022/03/25 02:11:03;;;;;;;100.03;60.35;;;;;;;;;;6261751;22;20356;-81
2022/03/25 02:13:29;;;;;;;108.65;63.28;;;;;;;;;;6237863;23;20452;-85
2022/03/25 02:15:55;;;;;;;115.70;64.13;;;;;;;;;;6234865;23;20043;-85
2022/03/25 02:18:23;;;;;;;110.03;60.20;;;;;;;;;;6235138;23;20016;-84
2022/03/25 02:20:49;;;;;;;109.78;62.13;;;;;;;;;;6237867;23;20016;-85
2022/03/25 02:23:19;;;;;;;99.45;59.58;;;;;;;;;;6236932;23;20016;-87
2022/03/25 02:25:49;;;;;;;102.57;59.72;;;;;;;;;;6237400;23;20027;-86
2022/03/25 02:28:15;;;;;;;112.18;61.47;;;;;;;;;;6236081;23;20031;-85
2022/03/25 02:30:43;;;;;;;107.88;60.97;;;;;;;;;;6261765;22;20024;-85
2022/03/25 02:33:09;;;;;;;104.55;59.58;;;;;;;;;;6235903;23;20051;-85
2022/03/25 02:35:45;;;;;;;113.43;62.10;;;;;;;;;;6236555;23;20066;-85
2022/03/25 02:38:12;;;;;;;106.18;59.10;;;;;;;;;;6237130;23;20343;-83
2022/03/25 02:40:39;;;;;;;105.82;57.88;;;;;;;;;;6237269;23;20069;-83
2022/03/25 02:43:05;;;;;;;102.78;56.22;;;;;;;;;;6236972;23;20016;-85
2022/03/25 02:45:31;;;;;;;101.50;58.95;;;;;;;;;;6237671;23;20023;-85
2022/03/25 02:47:57;;;;;;;102.68;58.20;;;;;;;;;;6237222;23;20027;-86
2022/03/25 02:50:25;;;;;;;106.82;58.70;;;;;;;;;;6237284;23;20023;-86
2022/03/25 02:52:52;;;;;;;105.40;58.92;;;;;;;;;;6237218;23;20020;-86
2022/03/25 02:55:18;;;;;;;100.43;58.05;;;;;;;;;;6235944;23;20058;-85
2022/03/25 02:57:44;;;;;;;98.88;56.33;;;;;;;;;;6237587;23;20066;-86
2022/03/25 03:00:10;;;;;;;98.93;55.95;;;;;;;;;;6236620;23;20016;-87
2022/03/25 03:02:37;;;;;;;110.35;58.17;;;;;;;;;;6237107;23;20016;-86
2022/03/25 03:05:06;;;;;;;102.65;57.15;;;;;;;;;;6236663;23;20024;-86
2022/03/25 03:07:33;;;;;;;108.10;58.40;;;;;;;;;;6235815;23;20012;-83
2022/03/25 03:09:59;;;;;;;96.00;54.78;;;;;;;;;;6237537;23;20023;-84
2022/03/25 03:12:25;;;;;;;95.85;54.97;;;;;;;;;;6236769;23;20042;-86
2022/03/25 03:14:51;;;;;;;90.25;53.33;;;;;;;;;;6237122;23;20043;-85
2022/03/25 03:17:17;;;;;;;89.40;54.00;;;;;;;;;;6237382;22;20095;-85
2022/03/25 03:19:43;;;;;;;96.47;52.85;;;;;;;;;;6261191;22;20020;-86
2022/03/25 03:22:10;;;;;;;93.22;52.47;;;;;;;;;;6260642;22;20403;-85
2022/03/25 03:24:36;;;;;;;87.85;50.90;;;;;;;;;;6236670;23;20046;-84
2022/03/25 03:27:03;;;;;;;90.72;51.53;;;;;;;;;;6259936;22;20051;-86
2022/03/25 03:29:29;;;;;;;84.50;49.45;;;;;;;;;;6235750;23;20020;-84
2022/03/25 03:31:55;;;;;;;89.53;51.53;;;;;;;;;;6236317;23;20016;-83
2022/03/25 03:34:21;;;;;;;89.28;49.85;;;;;;;;;;6237462;23;20020;-85
2022/03/25 03:36:47;;;;;;;91.93;50.83;;;;;;;;;;6237072;23;20504;-84
2022/03/25 03:39:13;;;;;;;88.03;51.30;;;;;;;;;;6261324;22;20020;-83
2022/03/25 03:41:39;;;;;;;92.72;51.13;;;;;;;;;;6210247;23;20028;-83
2022/03/25 03:44:06;;;;;;;84.90;49.65;;;;;;;;;;6234273;23;20026;-84
2022/03/25 03:46:33;;;;;;;90.65;48.83;;;;;;;;;;6260890;22;20023;-84
2022/03/25 03:48:59;;;;;;;86.25;50.20;;;;;;;;;;6236568;23;20130;-82
2022/03/25 03:51:25;;;;;;;84.35;47.42;;;;;;;;;;6260509;22;20020;-84
2022/03/25 03:53:51;;;;;;;86.00;47.78;;;;;;;;;;6260830;22;20020;-84
2022/03/25 03:56:17;;;;;;;77.50;45.90;;;;;;;;;;6234469;23;20051;-84
2022/03/25 03:58:43;;;;;;;83.25;46.47;;;;;;;;;;6237236;23;20066;-83
2022/03/25 04:01:10;;;;;;;77.93;45.28;;;;;;;;;;6260541;22;20090;-82
2022/03/25 04:03:36;;;;;;;81.43;45.75;;;;;;;;;;6235692;23;20404;-83
2022/03/25 04:06:03;;;;;;;77.47;45.72;;;;;;;;;;6260648;22;20443;-84
2022/03/25 04:08:29;;;;;;;81.10;45.28;;;;;;;;;;6236957;23;20051;-85
2022/03/25 04:10:55;;;;;;;81.32;46.72;;;;;;;;;;6258992;22;20522;-84
2022/03/25 04:13:21;;;;;;;77.63;44.35;;;;;;;;;;6258769;22;20016;-81
2022/03/25 04:15:47;;;;;;;80.25;45.75;;;;;;;;;;6186096;23;20023;-85
2022/03/25 04:18:13;;;;;;;76.30;44.65;;;;;;;;;;6236326;23;20024;-85
2022/03/25 04:20:39;;;;;;;71.55;43.47;;;;;;;;;;6260313;22;20574;-84
2022/03/25 04:23:05;;;;;;;84.80;45.15;;;;;;;;;;6236466;23;21298;-82
2022/03/25 04:25:31;;;;;;;72.55;42.72;;;;;;;;;;6236843;23;20016;-84
2022/03/25 04:27:59;;;;;;;72.15;43.03;;;;;;;;;;6261276;22;20066;-85
2022/03/25 04:30:26;;;;;;;78.72;44.90;;;;;;;;;;6236580;23;20020;-85
2022/03/25 04:32:53;;;;;;;78.13;44.13;;;;;;;;;;6236066;23;20456;-85
2022/03/25 04:35:20;;;;;;;71.53;42.70;;;;;;;;;;6260202;22;20016;-85
2022/03/25 04:37:46;;;;;;;80.90;44.65;;;;;;;;;;6235626;23;20016;-84
2022/03/25 04:40:14;;;;;;;76.30;43.20;;;;;;;;;;6234988;23;20016;-83
2022/03/25 04:42:40;;;;;;;70.55;41.72;;;;;;;;;;6235294;23;20024;-84
2022/03/25 04:45:06;;;;;;;70.03;41.13;;;;;;;;;;6236800;23;20070;-84
2022/03/25 04:47:33;;;;;;;70.47;41.95;;;;;;;;;;6260701;22;20510;-84
2022/03/25 04:49:59;;;;;;;78.25;42.42;;;;;;;;;;6238452;23;20334;-83
2022/03/25 04:52:25;;;;;;;73.88;41.95;;;;;;;;;;6243832;23;20027;-80
2022/03/25 04:54:51;;;;;;;72.60;40.80;;;;;;;;;;6242746;23;20071;-81
2022/03/25 04:57:17;;;;;;;74.30;42.38;;;;;;;;;;6250611;23;20026;-84
2022/03/25 04:59:43;;;;;;;75.55;42.88;;;;;;;;;;6247958;23;20310;-82
2022/03/25 05:02:10;;;;;;;75.00;42.47;;;;;;;;;;6257582;22;20037;-81
2022/03/25 05:04:36;;;;;;;79.28;42.63;;;;;;;;;;6235454;23;20595;-84
2022/03/25 05:07:02;;;;;;;81.60;44.45;;;;;;;;;;6258139;22;20024;-85
2022/03/25 05:09:29;;;;;;;74.53;42.53;;;;;;;;;;6232297;23;20440;-81
2022/03/25 05:11:55;;;;;;;74.80;44.42;;;;;;;;;;6257164;22;20032;-83
2022/03/25 05:14:21;;;;;;;86.70;45.67;;;;;;;;;;6231722;23;20024;-85
2022/03/25 05:16:52;;;;;;;85.93;44.75;;;;;;;;;;6233900;23;20019;-84
2022/03/25 05:19:22;;;;;;;79.90;44.13;;;;;;;;;;6231611;23;20049;-82
2022/03/25 05:21:48;;;;;;;75.45;44.40;;;;;;;;;;6231064;23;20024;-83
2022/03/25 05:24:14;;;;;;;79.82;46.00;;;;;;;;;;6233529;23;20020;-82
2022/03/25 05:26:40;;;;;;;81.88;45.53;;;;;;;;;;6257793;22;20063;-83
2022/03/25 05:29:07;;;;;;;80.07;44.95;;;;;;;;;;6232811;23;20031;-84
2022/03/25 05:31:34;;;;;;;81.57;46.00;;;;;;;;;;6258820;22;20020;-83
2022/03/25 05:34:00;;;;;;;86.75;46.10;;;;;;;;;;6235634;23;20408;-83
2022/03/25 05:36:26;;;;;;;87.72;48.53;;;;;;;;;;6206986;23;20028;-82
2022/03/25 05:38:52;;;;;;;87.10;48.38;;;;;;;;;;6235941;23;20741;-83
2022/03/25 05:41:18;;;;;;;88.10;46.28;;;;;;;;;;6235689;23;20023;-85
2022/03/25 05:43:44;;;;;;;86.40;47.20;;;;;;;;;;6261330;22;20042;-84
2022/03/25 05:46:10;;;;;;;86.68;47.63;;;;;;;;;;6237272;23;20103;-84
2022/03/25 05:48:37;;;;;;;85.60;49.00;;;;;;;;;;6236189;23;20016;-81
2022/03/25 05:51:03;;;;;;;91.13;46.65;;;;;;;;;;6237095;23;20062;-84
2022/03/25 05:53:30;;;;;;;87.50;48.97;;;;;;;;;;6234413;23;20020;-85
2022/03/25 05:55:59;;;;;;;85.10;47.88;;;;;;;;;;6235152;23;20293;-84
2022/03/25 05:58:25;;;;;;;88.30;48.90;;;;;;;;;;6236641;23;20024;-86
2022/03/25 06:00:51;;;;;;;84.35;47.28;;;;;;;;;;6237503;23;20039;-85
2022/03/25 06:03:17;;;;;;;83.53;46.35;;;;;;;;;;6237483;23;20024;-85
2022/03/25 06:05:43;;;;;;;90.30;49.47;;;;;;;;;;6237872;23;20042;-83
2022/03/25 06:08:10;;;;;;;86.28;48.60;;;;;;;;;;6237955;23;20020;-82
2022/03/25 06:10:36;;;;;;;84.28;47.30;;;;;;;;;;6237750;23;20119;-83
2022/03/25 06:13:02;;;;;;;80.85;46.80;;;;;;;;;;6237713;23;20514;-85
2022/03/25 06:15:28;;;;;;;86.32;46.78;;;;;;;;;;6235834;23;20101;-86
2022/03/25 06:17:56;;;;;;;89.35;48.30;;;;;;;;;;6262311;22;20031;-81
2022/03/25 06:20:28;;;;;;;95.38;49.63;;;;;;;;;;6235514;23;20016;-84
2022/03/25 06:22:54;;;;;;;91.32;49.30;;;;;;;;;;6235097;23;20016;-84
2022/03/25 06:25:20;;;;;;;83.90;47.80;;;;;;;;;;6260945;22;20066;-84
2022/03/25 06:27:51;;;;;;;83.85;48.15;;;;;;;;;;6261469;22;20356;-85
2022/03/25 06:30:17;;;;;;;81.32;47.92;;;;;;;;;;6236770;23;20086;-81
2022/03/25 06:32:44;;;;;;;85.82;50.80;;;;;;;;;;6261529;22;20460;-85
2022/03/25 06:35:10;;;;;;;84.88;47.38;;;;;;;;;;6260903;22;20036;-82
2022/03/25 06:37:37;;;;;;;81.40;46.28;;;;;;;;;;6260134;22;20055;-83
2022/03/25 06:40:07;;;;;;;83.85;48.72;;;;;;;;;;6237802;23;20016;-85
2022/03/25 06:42:36;;;;;;;80.30;45.30;;;;;;;;;;6237887;23;20043;-85
2022/03/25 06:45:03;;;;;;;80.78;45.92;;;;;;;;;;6261211;22;20016;-83
2022/03/25 06:47:29;;;;;;;75.60;43.58;;;;;;;;;;6261414;22;20016;-84
2022/03/25 06:49:56;;;;;;;71.50;43.03;;;;;;;;;;6261148;22;20375;-82
2022/03/25 06:52:22;;;;;;;81.25;44.63;;;;;;;;;;6237724;23;20020;-85
2022/03/25 06:54:48;;;;;;;73.93;45.50;;;;;;;;;;6261465;22;20042;-84
2022/03/25 06:57:23;;;;;;;73.57;44.28;;;;;;;;;;6236700;23;20020;-82
2022/03/25 06:59:49;;;;;;;74.53;42.83;;;;;;;;;;6261537;22;20465;-84
2022/03/25 07:02:16;;;;;;;66.70;42.60;;;;;;;;;;6260944;22;20063;-85
2022/03/25 07:04:42;;;;;;;71.25;41.95;;;;;;;;;;6239869;23;20127;-87
2022/03/25 07:07:27;;;;;;;69.22;42.78;;;5.90;99.90;;;;;;6236310;23;20023;-84
2022/03/25 07:09:54;;;;;;;72.72;43.95;;;;;;;;;;6235115;23;20016;-84
2022/03/25 07:12:20;;;;;;;71.82;42.65;;;;;;;;;;6237439;23;20020;-85
2022/03/25 07:14:46;;;;;;;68.75;42.00;;;;;;;;;;6237725;23;20044;-84
2022/03/25 07:17:13;;;;;;;63.15;38.10;;;;;;;;;;6236816;23;20307;-84
2022/03/25 07:19:39;;;;;;;58.97;38.65;;;;;;;;;;6237161;23;20016;-85
2022/03/25 07:22:05;;;;;;;54.22;36.70;;;;;;;;;;6236401;23;20016;-82
2022/03/25 07:24:31;;;;;;;51.83;34.42;;;;;;;;;;6264197;22;20131;-80
2022/03/25 07:26:57;;;;;;;53.97;33.78;;;;;;;;;;6246745;23;20019;-85
2022/03/25 07:29:23;;;;;;;52.78;32.90;;;;;;;;;;6246973;23;20031;-86
2022/03/25 07:31:49;;;;;;;49.80;33.47;;;;;;;;;;6247838;23;20028;-84
2022/03/25 07:34:15;;;;;;;50.35;31.42;;;;;;;;;;6241207;23;20024;-85
2022/03/25 07:36:42;;;;;;;47.17;31.63;;;;;;;;;;6238692;23;20016;-85
2022/03/25 07:39:08;;;;;;;49.13;31.02;;;;;;;;;;6237702;23;20112;-83
2022/03/25 07:41:34;;;;;;;44.55;29.52;;;;;;;;;;6256007;23;20019;-82
2022/03/25 07:44:01;;;;;;;48.72;30.02;;;;;;;;;;6203429;23;20796;-82
2022/03/25 07:46:28;;;;;;;44.85;29.85;;;;;;;;;;6255070;23;20123;-81
2022/03/25 07:48:54;;;;;;;44.20;30.20;;;;;;;;;;6248998;23;20107;-84
2022/03/25 07:51:20;;;;;;;41.45;28.85;;;;;;;;;;6244406;23;20031;-80
2022/03/25 07:53:46;;;;;;;40.80;26.13;;;;;;;;;;6241959;23;20027;-81
2022/03/25 07:56:12;;;;;;;39.88;25.33;;;;;;;;;;6243483;23;20023;-83
2022/03/25 07:58:39;;;;;;;42.83;27.17;;;;;;;;;;6239474;23;20012;-83
2022/03/25 08:01:05;;;;;;;41.47;28.50;;;;;;;;;;6236683;23;20027;-81
2022/03/25 08:03:31;;;;;;;43.65;27.83;;;;;;;;;;6238514;23;20349;-84
2022/03/25 08:05:57;;;;;;;34.83;24.60;;;;;;;;;;6257244;22;20074;-82
2022/03/25 08:08:23;;;;;;;37.28;25.40;;;;;;;;;;6260751;22;20398;-83
2022/03/25 08:10:55;;;;;;;45.90;26.70;;;;;;;;;;6236498;23;20352;-81
2022/03/25 08:13:25;;;;;;;37.83;25.55;;;;;;;;;;6234419;23;20024;-85
2022/03/25 08:15:51;;;;;;;47.08;28.48;;;;;;;;;;6260408;22;20024;-84
2022/03/25 08:18:18;;;;;;;42.70;28.95;;;;;;;;;;6233916;23;20031;-82
2022/03/25 08:20:48;;;;;;;42.65;29.73;;;;;;;;;;6259389;22;20641;-84
2022/03/25 08:28:50;;;;;;;43.38;29.80;;;;;;;;;;6234993;23;20103;-85
2022/03/25 08:31:16;;;;;;;45.75;29.48;;;;;;;;;;6236219;23;20016;-84
2022/03/25 08:33:44;;;;;;;48.10;30.13;;;;;;;;;;6236561;23;20027;-84
2022/03/25 08:36:10;;;;;;;45.08;29.25;;;;;;;;;;6233317;23;20060;-84
2022/03/25 08:38:37;;;;;;;49.35;31.23;;;;;;;;;;6259152;22;20020;-83
2022/03/25 08:41:04;;;;;;;50.20;32.40;;;;;;;;;;6236968;23;20101;-84
2022/03/25 08:43:31;;;;;;;45.05;29.95;;;;;;;;;;6233316;23;20167;-83
2022/03/25 08:45:57;;;;;;;46.45;31.00;;;;;;;;;;6239172;23;20092;-83
2022/03/25 08:48:32;;;;;;;42.03;29.10;;;;;;;;;;6253016;23;20024;-88
2022/03/25 08:50:58;;;;;;;44.53;29.52;;;;;;;;;;6212673;23;20078;-82
2022/03/25 08:53:24;;;;;;;39.17;27.40;;;;;;;;;;6266865;22;20024;-82
2022/03/25 08:55:51;;;;;;;41.63;28.00;;;;;;;;;;6235997;23;20031;-82
2022/03/25 08:58:17;;;;;;;46.35;28.85;;;;;;;;;;6236062;23;20016;-82
2022/03/25 09:00:43;;;;;;;45.30;29.67;;;;;;;;;;6261080;22;20013;-82
2022/03/25 09:03:09;;;;;;;37.67;26.65;;;;;;;;;;6237111;23;20016;-81
2022/03/25 09:05:35;;;;;;;41.53;25.40;;;;;;;;;;6236834;23;20017;-81
2022/03/25 09:08:01;;;;;;;40.83;26.88;;;;;;;;;;6262730;22;20020;-82
2022/03/25 09:10:27;;;;;;;39.38;26.70;;;;;;;;;;6262848;22;20085;-82
2022/03/25 09:12:53;;;;;;;36.45;27.77;;;;;;;;;;6261977;22;20012;-82
2022/03/25 09:15:21;;;;;;;31.38;21.30;;;;;;;;;;6238252;23;20020;-82
2022/03/25 09:17:48;;;;;;;39.97;25.80;;;;;;;;;;6236802;23;20518;-82
2022/03/25 09:20:15;;;;;;;36.35;24.88;;;;;;;;;;6185745;23;20024;-83
2022/03/25 09:22:41;;;;;;;41.50;27.95;;;;;;;;;;6261946;22;20023;-82
2022/03/25 09:25:08;;;;;;;40.28;28.35;;;;;;;;;;6240630;23;20016;-82
2022/03/25 09:27:34;;;;;;;38.40;25.23;;;;;;;;;;6237629;23;20471;-83
2022/03/25 09:30:01;;;;;;;38.15;25.17;;;;;;;;;;6239221;23;20023;-82
2022/03/25 09:32:27;;;;;;;38.25;25.60;;;;;;;;;;6238559;23;20051;-83
2022/03/25 09:35:09;;;;;;;33.40;21.63;;;;;;;;;;6266430;22;20091;-82
2022/03/25 09:37:40;;;;;;;31.52;19.48;;;;;;;;;;6269023;22;20026;-83
2022/03/25 09:40:08;;;;;;;34.55;18.58;;;;;;;;;;6266915;22;20015;-82
2022/03/25 09:42:34;;;;;;;28.38;18.67;;;;;;;;;;6267168;22;20032;-82
2022/03/25 09:45:01;;;;;;;32.53;18.55;;;;;;;;;;6267913;22;20356;-82
2022/03/25 09:47:30;;;;;;;31.25;22.50;;;;;;;;;;6266807;22;20104;-82
2022/03/25 09:49:56;;;;;;;32.00;19.48;;;;;;;;;;6246545;22;20658;-82
2022/03/25 09:52:23;;;;;;;35.03;20.77;;;;;;;;;;6248380;22;20016;-82
2022/03/25 09:54:49;;;;;;;31.77;19.63;;;;;;;;;;6276065;22;20012;-83
2022/03/25 09:57:15;;;;;;;29.65;17.60;;;;;;;;;;6266953;22;20444;-83
2022/03/25 09:59:41;;;;;;;28.67;17.55;;;;;;;;;;6241940;22;20067;-82
2022/03/25 10:02:08;;;;;;;29.50;19.80;;;;;;;;;;6267934;22;20482;-83
2022/03/25 10:04:44;;;;;;;27.75;18.85;;;;;;;;;;6213869;22;20090;-82
2022/03/25 10:07:20;;;;;;;28.80;16.90;;;;;;;;;;6239488;22;20024;-83
2022/03/25 10:09:47;;;;;;;29.05;16.13;;;;;;;;;;6267519;22;20027;-82
2022/03/25 10:12:26;;;;;;;27.85;17.90;;;;;;;;;;6239742;22;20071;-83
2022/03/25 10:15:12;;;;;;;25.27;15.40;;;;;;;;;;6265571;22;20023;-83
2022/03/25 10:17:45;;;;;;;28.02;16.42;;;;;;;;;;6264852;22;20076;-83
2022/03/25 10:20:11;;;;;;;33.83;18.63;;;;;;;;;;6268207;22;20494;-83
2022/03/25 10:22:37;;;;;;;31.17;17.45;;;;;;;;;;6265564;22;20019;-84
2022/03/25 10:25:09;;;;;;;27.08;17.75;;;;;;;;;;6267870;22;20023;-83
2022/03/25 10:27:36;;;;;;;27.98;15.98;;;;;;;;;;6266834;22;20019;-83
2022/03/25 10:30:05;;;;;;;24.33;14.18;;;;;;;;;;6267617;22;20012;-83
2022/03/25 10:32:31;;;;;;;25.23;15.80;;;;;;;;;;6267296;22;20069;-83
2022/03/25 10:35:09;;;;;;;26.42;15.32;;;;;;;;;;6266251;22;20094;-84
2022/03/25 10:37:58;;;;;;;20.10;12.40;;;;;;;;;;6267023;22;20024;-83
2022/03/25 10:40:24;;;;;;;23.10;13.10;;;;;;;;;;6251956;22;20040;-84
2022/03/25 10:43:04;;;;;;;22.25;13.93;;;;;;;;;;6268167;22;20023;-83
2022/03/25 10:45:30;;;;;;;25.10;13.88;;;;;;;;;;6266131;22;20030;-82
2022/03/25 10:48:16;;;;;;;25.70;12.50;;;;;;;;;;6265118;22;20070;-83
2022/03/25 10:51:01;;;;;;;20.75;12.25;;;;;;;;;;6266652;22;20027;-83
2022/03/25 10:53:28;;;;;;;18.98;12.20;;;;;;;;;;6266843;22;20026;-82
2022/03/25 10:55:59;;;;;;;21.65;11.88;;;;;;;;;;6266354;22;20020;-84
2022/03/25 10:58:25;;;;;;;22.52;11.90;;;;;;;;;;6264831;22;20016;-88
2022/03/25 11:00:51;;;;;;;21.75;12.43;;;;;;;;;;6267133;22;20030;-89
2022/03/25 11:03:18;;;;;;;18.52;11.75;;;;;;;;;;6265326;22;20022;-89
2022/03/25 11:05:44;;;;;;;15.32;9.35;;;;;;;;;;6188646;22;20042;-84
2022/03/25 11:08:11;;;;;;;15.30;9.27;;;;;;;;;;6265688;22;20107;-88
2022/03/25 11:10:38;;;;;;;17.25;11.13;;;;;;;;;;6266476;22;20022;-88
2022/03/25 11:13:05;;;;;;;18.63;9.88;;;;;;;;;;6267434;22;20059;-84
2022/03/25 11:15:31;;;;;;;16.33;9.55;;;;;;;;;;6265955;22;20073;-88
2022/03/25 11:17:59;;;;;;;20.15;11.15;;;;;;;;;;6267054;22;20016;-86
2022/03/25 11:20:26;;;;;;;18.02;11.38;;;;;;;;;;6268787;22;20030;-93
2022/03/25 11:22:55;;;;;;;21.48;13.45;;;;;;;;;;6267020;22;20185;-90
2022/03/25 11:25:23;;;;;;;29.08;15.13;;;;;;;;;;6266455;22;20448;-85
2022/03/25 11:27:53;;;;;;;27.50;16.20;;;;;;;;;;6268839;22;20022;-89
2022/03/25 11:30:20;;;;;;;32.17;17.92;;;;;;;;;;6270021;22;20355;-83
2022/03/25 11:32:49;;;;;;;26.83;17.45;;;;;;;;;;6269471;22;20015;-84
2022/03/25 11:35:16;;;;;;;28.23;17.70;;;;;;;;;;6265684;22;20026;-84
2022/03/25 11:37:42;;;;;;;27.52;19.02;;;;;;;;;;6265765;22;20019;-84
2022/03/25 11:40:25;;;;;;;29.65;19.58;;;;;;;;;;6267198;22;20023;-84
2022/03/25 11:42:51;;;;;;;;;;;;;;;;;;6268409;22;20055;-85
2022/03/25 11:45:32;;;;;;;32.63;23.20;;;;;;;;;;6266555;22;20704;-84
2022/03/25 11:48:04;;;;;;;29.95;21.80;;;;;;;;;;6276040;22;20024;-84
2022/03/25 11:50:45;;;;;;;36.08;22.92;;;;;;;;;;6291510;22;20024;-84
2022/03/25 11:53:15;;;;;;;31.77;23.10;;;;;;;;;;6291395;22;20031;-85
2022/03/25 11:55:56;;;;;;;34.28;26.10;;;;;;;;;;6287955;22;20029;-83
2022/03/25 11:58:23;;;;;;;40.30;28.83;;;;;;;;;;6284350;22;20054;-84
2022/03/25 12:00:53;;;;;;;41.50;28.83;;;;;;;;;;6262169;22;20016;-84
2022/03/25 12:03:20;;;;;;;39.33;28.73;;;;;;;;;;6292593;22;20031;-84
2022/03/25 12:05:59;;;;;;;44.92;29.27;;;;;;;;;;6292355;22;20026;-84
2022/03/25 12:08:27;;;;;;;37.63;25.15;;;;;;;;;;6294935;22;20025;-84
2022/03/25 12:10:54;;;;;;;43.30;32.17;;;;;;;;;;6293426;22;20024;-87
2022/03/25 12:13:20;;;;;;;51.97;31.70;;;;;;;;;;6294412;22;20040;-86
2022/03/25 12:15:47;;;;;;;45.13;32.15;;;;;;;;;;6291521;22;20016;-86
2022/03/25 12:18:46;;;;;;;44.65;32.45;;;;;;;;;;6283850;22;20351;-88
2022/03/25 12:21:39;;;;;;;56.45;33.65;;;;;;;;;;6102498;23;20016;-86
2022/03/25 12:24:05;;;;;;;47.45;32.20;;;;;;;;;;6184882;23;20021;-83
2022/03/25 12:26:43;;;;;;;49.75;32.08;;;;;;;;;;6225807;22;20042;-88
2022/03/25 12:29:09;;;;;;;37.17;26.60;;;;;;;;;;6271151;22;20030;-85
2022/03/25 12:31:35;;;;;;;39.72;25.33;;;;;;;;;;6243989;22;20061;-85
2022/03/25 12:34:05;;;;;;;32.55;21.23;;;;;;;;;;6266033;22;20211;-88
2022/03/25 12:36:41;;;;;;;27.88;16.75;;;;;;;;;;6269063;22;20023;-88
2022/03/25 12:39:11;;;;;;;22.98;15.65;;;;;;;;;;6269431;22;20023;-89
2022/03/25 12:41:38;;;;;;;27.50;17.67;;;;;;;;;;6269909;22;20023;-83
2022/03/25 12:44:04;;;;;;;25.63;16.52;;;;;;;;;;6270347;22;20011;-88
2022/03/25 12:46:31;;;;;;;31.48;20.33;;;;;;;;;;6270289;22;20545;-87
2022/03/25 12:49:07;;;;;;;28.17;20.65;;;;;;;;;;6271789;22;20016;-84
2022/03/25 12:51:33;;;;;;;36.80;24.13;;;;;;;;;;6246843;22;20092;-88
2022/03/25 12:54:00;;;;;;;36.78;26.30;;;;;;;;;;6274151;22;20083;-87
2022/03/25 12:56:26;;;;;;;29.42;20.98;;;;;;;;;;6270311;22;20110;-86
2022/03/25 12:58:57;;;;;;;27.30;17.10;;;;;;;;;;6268537;22;20026;-90
2022/03/25 13:01:24;;;;;;;27.85;19.33;;;;;;;;;;6242458;22;20732;-88
2022/03/25 13:03:51;;;;;;;24.25;18.58;;;;;;;;;;6268491;22;20529;-84
2022/03/25 13:06:19;;;;;;;21.73;14.00;;;;;;;;;;6267767;22;20020;-83
2022/03/25 13:08:45;;;;;;;26.63;15.45;;;;;;;;;;6268892;22;20015;-88
2022/03/25 13:11:12;;;;;;;27.67;15.38;;;;;;;;;;6268521;22;20154;-88
2022/03/25 13:13:39;;;;;;;23.52;15.80;;;;;;;;;;6266655;22;20019;-85
2022/03/25 13:16:06;;;;;;;26.20;17.02;;;;;;;;;;6266807;22;20012;-87
2022/03/25 13:18:53;;;;;;;29.05;17.17;;;;;;;;;;6268890;22;20186;-86
2022/03/25 13:21:19;;;;;;;26.02;16.50;;;;;;;;;;6242998;22;20062;-88
2022/03/25 13:23:45;;;;;;;25.60;18.65;;;;;;;;;;6263673;22;20073;-85
2022/03/25 13:26:11;;;;;;;31.08;21.20;;;;;;;;;;6267796;22;20019;-88
2022/03/25 13:28:45;;;;;;;42.45;26.67;;;;;;;;;;6265349;22;20016;-89
2022/03/25 13:31:11;;;;;;;42.20;25.42;;;;;;;;;;6268163;22;20023;-88
2022/03/25 13:33:54;;;;;;;37.83;25.25;;;;;;;;;;6267636;22;20087;-87
2022/03/25 13:36:30;;;;;;;41.53;25.38;;;;;;;;;;6268446;22;20027;-83
2022/03/25 13:39:08;;;;;;;33.25;20.92;;;;;;;;;;6267207;22;20329;-84
2022/03/25 13:41:35;;;;;;;29.23;16.10;;;;;;;;;;6265702;22;20125;-87
2022/03/25 13:44:05;;;;;;;31.88;18.08;;;;;;;;;;6269773;22;20012;-85
2022/03/25 13:46:32;;;;;;;43.13;25.15;;;;;;;;;;6267577;22;20024;-87
2022/03/25 13:48:58;;;;;;;47.70;26.10;;;;;;;;;;6268908;22;20016;-87
2022/03/25 13:51:37;;;;;;;41.70;26.15;;;;;;;;;;6240420;22;20030;-85
2022/03/25 13:54:06;;;;;;;52.75;30.48;;;;;;;;;;6268216;22;20108;-86
2022/03/25 13:56:39;;;;;;;46.38;30.15;;;;;;;;;;6269732;22;20023;-90
2022/03/25 13:59:06;;;;;;;56.92;30.77;;;;;;;;;;6226667;22;20016;-82
2022/03/25 14:07:42;;;;;;;50.85;32.63;;;;;;;;;;6208707;23;20020;-85
2022/03/25 14:13:15;;;;;;;56.25;33.58;;;;;;;;;;6142531;23;20034;-86
2022/03/25 14:15:42;;;;;;;49.55;31.10;;;;;;;;;;6141787;23;20478;-87
2022/03/25 14:18:16;;;;;;;53.67;31.95;;;;;;;;;;6142047;23;20014;-83
2022/03/25 14:21:01;;;;;;;45.25;30.25;;;;;;;;;;6141020;23;20053;-83
2022/03/25 14:23:28;;;;;;;50.38;29.38;;;;;;;;;;6148033;23;20021;-85
2022/03/25 14:25:54;;;;;;;51.85;30.52;;;;;;;;;;6145576;23;20029;-87
2022/03/25 14:28:21;;;;;;;44.00;28.25;;;;;;;;;;6120074;23;20025;-87
2022/03/25 14:30:47;;;;;;;44.13;28.88;;;;;;;;;;6143638;23;20033;-86
2022/03/25 14:33:17;;;;;;;42.10;27.77;;;;;;;;;;6144366;23;20026;-88